Time;durP1;ratioP1;P1;durP2;ratioP2;P2;SDS_P1;SDS_P2;PMS_P1;PMS_P2;Temp;Humidity;BMP_temperature;BMP_pressure;BME280_temperature;BME280_humidity;BME280_pressure;Samples;Min_cycle;Max_cycle;Signal;HPM_P1;HPM_P2
2024/03/01 00:00:13;;;;;;;5.32;3.88;;;11.70;81.80;;;;;;4805931;29;20130;-94
2024/03/01 00:02:39;;;;;;;4.70;3.58;;;11.70;81.80;;;;;;4802802;29;20096;-84
2024/03/01 00:05:05;;;;;;;5.38;3.80;;;11.70;81.80;;;;;;4796074;29;20035;-94
2024/03/01 00:07:31;;;;;;;5.47;3.92;;;11.70;81.80;;;;;;4792213;29;20030;-88
2024/03/01 00:09:57;;;;;;;5.47;4.03;;;11.70;81.80;;;;;;4804312;29;20086;-80
2024/03/01 00:12:22;;;;;;;6.40;4.05;;;11.70;81.80;;;;;;4792061;29;20019;-88
2024/03/01 00:14:49;;;;;;;5.95;4.18;;;11.70;81.80;;;;;;4804097;29;20095;-88
2024/03/01 00:17:14;;;;;;;5.70;4.10;;;11.70;81.80;;;;;;4792289;29;20031;-93
2024/03/01 00:19:40;;;;;;;5.22;3.95;;;11.70;81.80;;;;;;4798070;29;20035;-94
2024/03/01 00:22:06;;;;;;;6.30;4.47;;;11.60;82.40;;;;;;4799689;29;20408;-93
2024/03/01 00:24:33;;;;;;;6.10;4.30;;;11.60;81.70;;;;;;4792852;29;20030;-94
2024/03/01 00:26:59;;;;;;;5.70;4.60;;;11.60;81.70;;;;;;4790217;29;20069;-94
2024/03/01 00:29:24;;;;;;;6.53;4.15;;;11.60;81.80;;;;;;4788644;29;20054;-84
2024/03/01 00:31:51;;;;;;;5.70;4.28;;;11.60;81.80;;;;;;4790907;29;20041;-94
2024/03/01 00:34:17;;;;;;;5.85;4.25;;;11.60;81.70;;;;;;4806588;29;20047;-88
2024/03/01 00:36:43;;;;;;;5.78;4.20;;;11.60;81.70;;;;;;4790333;29;20031;-80
2024/03/01 00:39:08;;;;;;;6.18;4.63;;;11.60;81.70;;;;;;4805233;29;20033;-87
2024/03/01 00:41:34;;;;;;;5.53;4.22;;;11.60;81.70;;;;;;4808785;29;20042;-80
2024/03/01 00:44:03;;;;;;;6.05;4.13;;;11.60;81.70;;;;;;4789879;29;20038;-94
2024/03/01 00:46:31;;;;;;;6.30;4.70;;;11.60;81.70;;;;;;4790161;29;20508;-88
2024/03/01 00:48:57;;;;;;;5.70;4.10;;;11.60;81.70;;;;;;4807014;29;20034;-80
2024/03/01 00:51:23;;;;;;;5.93;4.35;;;11.60;81.70;;;;;;4812987;29;20033;-94
2024/03/01 00:53:49;;;;;;;7.13;4.60;;;11.60;81.70;;;;;;4811433;29;20536;-83
2024/03/01 00:56:15;;;;;;;6.05;4.43;;;11.60;81.70;;;;;;4795016;29;20043;-87
2024/03/01 00:58:41;;;;;;;5.82;4.35;;;11.60;81.70;;;;;;4828870;29;20037;-82
2024/03/01 01:01:06;;;;;;;6.88;4.47;;;11.60;81.80;;;;;;4794226;29;20027;-84
2024/03/01 01:03:32;;;;;;;6.38;4.78;;;11.60;81.80;;;;;;4792958;29;20038;-87
2024/03/01 01:06:00;;;;;;;6.53;4.65;;;11.60;81.80;;;;;;4806928;29;20550;-87
2024/03/01 01:08:26;;;;;;;6.28;4.43;;;11.60;81.80;;;;;;4812142;29;20072;-95
2024/03/01 01:10:51;;;;;;;6.50;4.50;;;11.60;81.70;;;;;;4791315;29;20131;-81
2024/03/01 01:13:17;;;;;;;6.55;4.78;;;11.60;81.80;;;;;;4809400;29;20517;-84
2024/03/01 01:15:44;;;;;;;5.95;4.43;;;11.50;81.70;;;;;;4790144;29;20039;-80
2024/03/01 01:18:12;;;;;;;6.47;4.53;;;11.50;81.70;;;;;;4805479;29;20038;-88
2024/03/01 01:20:40;;;;;;;7.03;5.35;;;11.50;81.70;;;;;;4783439;29;20575;-80
2024/03/01 01:23:06;;;;;;;6.43;4.55;;;11.50;81.70;;;;;;4783432;29;20397;-95
2024/03/01 01:25:31;;;;;;;6.43;4.47;;;11.60;81.80;;;;;;4755448;30;20039;-84
2024/03/01 01:28:00;;;;;;;5.95;4.35;;;11.50;81.80;;;;;;4771261;29;20141;-95
2024/03/01 01:30:26;;;;;;;6.28;4.63;;;11.50;81.80;;;;;;4785987;29;20046;-84
2024/03/01 01:32:51;;;;;;;6.53;4.65;;;11.50;81.70;;;;;;4783595;29;20035;-94
2024/03/01 01:35:18;;;;;;;7.28;5.03;;;11.50;81.70;;;;;;4769536;29;20059;-84
2024/03/01 01:37:44;;;;;;;6.78;4.88;;;11.50;81.80;;;;;;4757325;29;20504;-94
2024/03/01 01:40:12;;;;;;;6.85;4.65;;;11.50;81.80;;;;;;4768726;29;20028;-84
2024/03/01 01:42:39;;;;;;;6.43;4.85;;;11.50;81.80;;;;;;4753429;29;20044;-84
2024/03/01 01:45:06;;;;;;;6.07;4.55;;;11.50;81.80;;;;;;4752268;29;20519;-95
2024/03/01 01:47:33;;;;;;;5.68;4.40;;;11.50;81.80;;;;;;4783506;29;20043;-81
2024/03/01 01:50:00;;;;;;;6.28;4.60;;;11.50;82.40;;;;;;4751526;29;20146;-88
2024/03/01 01:52:27;;;;;;;6.95;4.88;;;11.50;81.80;;;;;;4753963;29;20031;-84
2024/03/01 01:54:53;;;;;;;6.70;5.10;;;11.50;81.80;;;;;;4753649;29;20031;-85
2024/03/01 01:57:21;;;;;;;6.32;4.70;;;11.50;81.80;;;;;;4771094;29;20127;-95
2024/03/01 01:59:49;;;;;;;6.20;4.88;;;11.50;81.80;;;;;;4772324;29;20035;-95
2024/03/01 02:02:19;;;;;;;7.35;5.38;;;11.50;81.80;;;;;;4755369;29;20130;-81
2024/03/01 02:04:46;;;;;;;7.00;4.63;;;11.50;81.80;;;;;;4788186;29;20043;-81
2024/03/01 02:07:12;;;;;;;6.78;4.60;;;11.50;81.80;;;;;;4804437;29;20026;-81
2024/03/01 02:09:41;;;;;;;6.70;4.97;;;11.40;81.70;;;;;;4793730;29;20037;-88
2024/03/01 02:12:07;;;;;;;7.05;5.30;;;11.50;81.80;;;;;;4779400;29;20057;-88
2024/03/01 02:14:33;;;;;;;7.55;5.30;;;11.50;81.80;;;;;;4806854;29;20504;-94
2024/03/01 02:16:58;;;;;;;7.28;5.45;;;11.50;81.80;;;;;;4806247;29;20087;-81
2024/03/01 02:19:24;;;;;;;6.97;5.38;;;11.50;81.80;;;;;;4815040;29;20050;-81
2024/03/01 02:22:02;;;;;;;6.13;4.75;;;11.40;81.70;;;;;;4798464;29;20037;-81
2024/03/01 02:24:28;;;;;;;7.53;5.28;;;11.50;81.80;;;;;;4816931;29;20030;-85
2024/03/01 02:26:55;;;;;;;6.65;5.15;;;11.40;81.70;;;;;;4789505;29;20441;-81
2024/03/01 02:29:21;;;;;;;6.75;5.10;;;11.40;81.70;;;;;;4806232;29;20083;-86
2024/03/01 02:31:47;;;;;;;7.47;5.53;;;11.40;81.70;;;;;;4810441;29;20449;-85
2024/03/01 02:34:13;;;;;;;7.28;5.07;;;11.50;81.80;;;;;;4796385;29;20023;-96
2024/03/01 02:36:38;;;;;;;7.10;4.78;;;11.50;81.80;;;;;;4808797;29;20496;-89
2024/03/01 02:39:07;;;;;;;8.02;5.88;;;11.40;81.70;;;;;;4791360;29;20132;-88
2024/03/01 02:41:33;;;;;;;7.18;5.18;;;11.40;81.70;;;;;;4788343;29;20041;-88
2024/03/01 02:43:59;;;;;;;7.20;5.35;;;11.40;81.70;;;;;;4820291;29;20030;-84
2024/03/01 02:46:27;;;;;;;7.53;5.35;;;11.40;81.70;;;;;;4800434;29;20976;-95
2024/03/01 02:48:52;;;;;;;8.00;5.32;;;11.40;81.70;;;;;;4793175;29;20030;-81
2024/03/01 02:51:18;;;;;;;6.90;5.50;;;11.40;81.70;;;;;;4791793;29;20079;-81
2024/03/01 02:53:45;;;;;;;7.15;5.30;;;11.40;81.70;;;;;;4802066;29;20547;-81
2024/03/01 02:56:12;;;;;;;7.35;5.35;;;11.40;81.70;;;;;;4808416;29;20046;-88
2024/03/01 02:58:38;;;;;;;8.00;5.55;;;11.40;81.70;;;;;;4803164;29;20031;-88
2024/03/01 03:01:04;;;;;;;7.03;5.05;;;11.40;81.70;;;;;;4792625;29;20053;-95
2024/03/01 03:03:32;;;;;;;6.68;4.78;;;11.40;81.70;;;;;;4783596;29;20054;-84
2024/03/01 03:05:59;;;;;;;7.43;5.50;;;11.40;81.80;;;;;;4802565;29;20045;-85
2024/03/01 03:08:24;;;;;;;7.97;5.60;;;11.40;82.40;;;;;;4786393;29;20083;-84
2024/03/01 03:10:50;;;;;;;8.13;5.63;;;11.40;81.90;;;;;;4807960;29;20038;-84
2024/03/01 03:13:16;;;;;;;7.47;5.72;;;11.40;81.80;;;;;;4794131;29;20483;-88
2024/03/01 03:15:42;;;;;;;7.07;5.45;;;11.40;81.80;;;;;;4791811;29;20118;-88
2024/03/01 03:18:10;;;;;;;7.43;5.75;;;11.40;81.80;;;;;;4796477;29;20034;-84
2024/03/01 03:20:36;;;;;;;6.88;5.03;;;11.40;81.80;;;;;;4803835;29;20039;-88
2024/03/01 03:23:05;;;;;;;7.90;5.78;;;11.40;81.80;;;;;;4799435;29;20038;-84
2024/03/01 03:25:31;;;;;;;7.85;5.80;;;11.40;81.90;;;;;;4807520;29;20423;-84
2024/03/01 03:27:56;;;;;;;6.95;5.45;;;11.40;81.80;;;;;;4812277;29;20063;-88
2024/03/01 03:30:22;;;;;;;7.22;5.25;;;11.40;81.80;;;;;;4802488;29;20083;-96
2024/03/01 03:32:48;;;;;;;8.35;5.75;;;11.30;81.80;;;;;;4804243;29;20039;-94
2024/03/01 03:35:14;;;;;;;7.28;5.57;;;11.40;81.80;;;;;;4807137;29;20179;-88
2024/03/01 03:37:40;;;;;;;7.57;5.90;;;11.30;81.80;;;;;;4807784;29;20042;-96
2024/03/01 03:40:15;;;;;;;7.38;5.68;;;11.40;81.90;;;;;;4793660;29;20433;-88
2024/03/01 03:42:41;;;;;;;8.30;5.97;;;11.30;81.80;;;;;;4802142;29;20039;-84
2024/03/01 03:45:11;;;;;;;7.57;5.63;;;11.30;81.90;;;;;;4819757;29;20122;-80
2024/03/01 03:47:37;;;;;;;7.28;5.53;;;11.30;81.90;;;;;;4799162;29;20055;-88
2024/03/01 03:50:06;;;;;;;8.07;6.10;;;11.30;81.90;;;;;;4791326;29;20460;-84
2024/03/01 03:52:34;;;;;;;8.38;5.80;;;11.30;81.90;;;;;;4790793;29;20079;-88
2024/03/01 03:55:00;;;;;;;8.00;5.65;;;11.30;81.90;;;;;;4790905;29;20042;-80
2024/03/01 03:57:25;;;;;;;8.38;6.18;;;11.30;81.80;;;;;;4794872;29;20455;-88
2024/03/01 03:59:52;;;;;;;8.27;5.95;;;11.30;81.90;;;;;;4785433;29;20141;-95
2024/03/01 04:02:18;;;;;;;7.22;5.22;;;11.30;81.80;;;;;;4806932;29;20142;-84
2024/03/01 04:04:43;;;;;;;8.45;5.70;;;11.30;81.90;;;;;;4801852;29;20125;-84
2024/03/01 04:07:11;;;;;;;7.35;5.45;;;11.30;81.80;;;;;;4789608;29;20027;-95
2024/03/01 04:09:36;;;;;;;7.97;5.93;;;11.30;81.80;;;;;;4794958;29;20062;-96
2024/03/01 04:12:05;;;;;;;8.23;6.03;;;11.30;81.90;;;;;;4809706;29;20054;-96
2024/03/01 04:14:32;;;;;;;6.93;5.20;;;11.30;81.80;;;;;;4794977;29;20078;-81
2024/03/01 04:16:58;;;;;;;7.47;5.65;;;11.30;81.90;;;;;;4806325;29;20074;-80
2024/03/01 04:19:24;;;;;;;8.10;5.97;;;11.20;81.80;;;;;;4810818;29;20034;-96
2024/03/01 04:21:52;;;;;;;7.93;6.10;;;11.30;81.80;;;;;;4783387;29;20110;-88
2024/03/01 04:24:19;;;;;;;7.60;5.20;;;11.30;81.90;;;;;;4782238;29;20565;-83
2024/03/01 04:26:45;;;;;;;7.78;5.97;;;11.20;81.80;;;;;;4801793;29;20030;-80
2024/03/01 04:29:10;;;;;;;7.60;5.55;;;11.20;81.80;;;;;;4786959;29;20045;-86
2024/03/01 04:31:38;;;;;;;8.98;6.15;;;11.30;81.90;;;;;;4787436;29;20564;-94
2024/03/01 04:34:06;;;;;;;8.68;6.35;;;11.20;81.80;;;;;;4786138;29;20041;-87
2024/03/01 04:36:32;;;;;;;7.35;5.90;;;11.20;81.90;;;;;;4805599;29;20105;-94
2024/03/01 04:38:58;;;;;;;7.38;5.60;;;11.20;81.90;;;;;;4817501;29;20082;-88
2024/03/01 04:41:24;;;;;;;7.60;5.65;;;11.30;81.90;;;;;;4801493;29;20062;-84
2024/03/01 04:43:53;;;;;;;6.57;4.82;;;11.20;81.80;;;;;;4793187;29;20065;-96
2024/03/01 04:46:19;;;;;;;6.93;5.47;;;11.20;81.80;;;;;;4800865;29;20144;-79
2024/03/01 04:48:44;;;;;;;7.45;5.32;;;11.20;81.90;;;;;;4786491;29;20113;-80
2024/03/01 04:51:12;;;;;;;7.45;5.63;;;11.20;81.90;;;;;;4819222;29;20034;-84
2024/03/01 04:53:38;;;;;;;7.45;5.38;;;11.20;81.90;;;;;;4790469;29;20711;-81
2024/03/01 04:56:08;;;;;;;7.97;5.22;;;11.20;81.80;;;;;;4782221;29;20043;-88
2024/03/01 04:58:33;;;;;;;6.95;5.20;;;11.20;81.80;;;;;;4809667;29;20407;-96
2024/03/01 05:01:00;;;;;;;7.15;5.05;;;11.20;81.80;;;;;;4804686;29;20058;-95
2024/03/01 05:03:29;;;;;;;6.28;5.15;;;11.20;81.80;;;;;;4808638;29;20035;-81
2024/03/01 05:05:56;;;;;;;6.28;4.45;;;11.20;81.90;;;;;;4787532;29;20090;-85
2024/03/01 05:08:23;;;;;;;6.57;4.90;;;11.20;81.90;;;;;;4809027;29;20124;-84
2024/03/01 05:10:51;;;;;;;6.03;4.50;;;11.20;81.90;;;;;;4794992;29;20044;-87
2024/03/01 05:13:18;;;;;;;6.35;4.70;;;11.20;81.90;;;;;;4808322;29;20484;-80
2024/03/01 05:15:45;;;;;;;6.03;4.45;;;11.20;82.00;;;;;;4799603;29;20035;-80
2024/03/01 05:18:13;;;;;;;5.25;4.10;;;11.20;81.90;;;;;;4803461;29;20042;-87
2024/03/01 05:20:39;;;;;;;6.07;4.43;;;11.20;81.90;;;;;;4809465;29;20035;-88
2024/03/01 05:23:06;;;;;;;6.00;4.40;;;11.20;82.00;;;;;;4800438;29;20047;-88
2024/03/01 05:25:32;;;;;;;7.03;4.55;;;11.20;82.00;;;;;;4795849;29;20033;-96
2024/03/01 05:27:58;;;;;;;6.05;4.35;;;11.20;82.00;;;;;;4795627;29;20048;-88
2024/03/01 05:30:24;;;;;;;5.80;4.20;;;11.20;82.00;;;;;;4790881;29;20039;-80
2024/03/01 05:32:51;;;;;;;5.15;4.00;;;11.20;82.00;;;;;;4795795;29;20079;-95
2024/03/01 05:35:23;;;;;;;5.97;4.55;;;11.20;82.00;;;;;;4807166;29;20068;-94
2024/03/01 05:37:49;;;;;;;5.53;3.95;;;11.20;82.00;;;;;;4806322;29;20083;-84
2024/03/01 05:40:15;;;;;;;6.13;4.28;;;11.20;82.00;;;;;;4791566;29;20022;-88
2024/03/01 05:42:44;;;;;;;5.93;4.05;;;11.20;82.00;;;;;;4788257;29;20125;-88
2024/03/01 05:45:12;;;;;;;4.82;3.42;;;11.20;82.00;;;;;;4789390;29;20035;-83
2024/03/01 05:47:45;;;;;;;6.28;4.10;;;11.20;82.00;;;;;;4813105;29;20496;-82
2024/03/01 05:50:13;;;;;;;5.18;3.67;;;11.20;82.00;;;;;;4802152;29;20043;-88
2024/03/01 05:52:43;;;;;;;4.63;3.30;;;11.20;82.00;;;;;;4796407;29;20579;-92
2024/03/01 05:55:15;;;;;;;4.70;3.50;;;11.10;82.00;;;;;;4800151;29;20100;-80
2024/03/01 05:57:42;;;;;;;4.95;3.72;;;11.20;82.00;;;;;;4786592;29;20125;-86
2024/03/01 06:00:25;;;;;;;4.63;3.40;;;11.20;82.10;;;;;;4789226;29;20037;-87
2024/03/01 06:02:51;;;;;;;5.30;3.70;;;11.20;82.00;;;;;;4804719;29;20050;-83
2024/03/01 06:05:18;;;;;;;4.95;3.30;;;11.10;82.60;;;;;;4789989;29;20035;-95
2024/03/01 06:07:45;;;;;;;4.25;3.20;;;11.20;82.00;;;;;;4796594;29;20026;-81
2024/03/01 06:10:13;;;;;;;4.20;3.35;;;11.20;82.00;;;;;;4813312;29;20034;-96
2024/03/01 06:12:39;;;;;;;4.95;3.63;;;11.10;81.90;;;;;;4795101;29;20046;-84
2024/03/01 06:15:05;;;;;;;4.28;3.20;;;11.10;82.00;;;;;;4805467;29;20065;-95
2024/03/01 06:17:33;;;;;;;4.32;3.03;;;11.10;82.00;;;;;;4822833;29;20034;-94
2024/03/01 06:19:58;;;;;;;5.05;3.28;;;11.10;82.00;;;;;;4809951;29;20027;-80
2024/03/01 06:22:24;;;;;;;6.03;3.70;;;11.10;81.90;;;;;;4824054;29;20098;-88
2024/03/01 06:24:53;;;;;;;4.90;3.55;;;11.10;82.00;;;;;;4805794;29;20027;-83
2024/03/01 06:27:19;;;;;;;5.00;3.58;;;11.20;82.00;;;;;;4790105;29;20106;-83
2024/03/01 06:29:45;;;;;;;5.18;3.35;;;11.10;81.90;;;;;;4806037;29;20047;-96
2024/03/01 06:32:11;;;;;;;5.43;3.65;;;11.10;81.90;;;;;;4808052;29;20110;-88
2024/03/01 06:34:38;;;;;;;4.57;3.58;;;11.10;81.90;;;;;;4793335;29;20103;-89
2024/03/01 06:37:04;;;;;;;4.72;3.38;;;11.10;81.90;;;;;;4805966;29;20039;-89
2024/03/01 06:39:30;;;;;;;4.53;3.13;;;11.10;81.90;;;;;;4804370;29;20029;-91
2024/03/01 06:41:56;;;;;;;4.72;3.15;;;11.10;81.90;;;;;;4804657;29;20035;-83
2024/03/01 06:44:25;;;;;;;4.30;3.45;;;11.10;81.90;;;;;;4790492;29;21650;-90
2024/03/01 06:46:52;;;;;;;5.43;3.90;;;11.10;81.90;;;;;;4790945;29;20118;-90
2024/03/01 06:49:18;;;;;;;5.28;3.42;;;11.10;82.00;;;;;;4791373;29;20027;-88
2024/03/01 06:51:44;;;;;;;6.75;3.95;;;11.00;81.90;;;;;;4793384;29;20511;-80
2024/03/01 06:54:10;;;;;;;5.10;3.47;;;11.00;81.90;;;;;;4791408;29;20042;-80
2024/03/01 06:56:42;;;;;;;4.25;3.42;;;11.00;81.90;;;;;;4819223;29;20031;-82
2024/03/01 06:59:08;;;;;;;5.50;3.25;;;11.00;81.90;;;;;;4804896;29;20031;-82
2024/03/01 07:01:39;;;;;;;4.70;3.40;;;11.00;81.90;;;;;;4796972;29;20057;-79
2024/03/01 07:04:05;;;;;;;4.22;3.33;;;11.00;81.90;;;;;;4810007;29;20041;-94
2024/03/01 07:06:31;;;;;;;4.28;3.28;;;11.00;81.90;;;;;;4790401;29;20395;-91
2024/03/01 07:08:57;;;;;;;4.55;3.20;;;11.00;81.90;;;;;;4804557;29;20034;-82
2024/03/01 07:11:25;;;;;;;4.72;3.30;;;11.00;81.90;;;;;;4801822;29;20125;-84
2024/03/01 07:13:51;;;;;;;4.75;3.78;;;11.00;81.90;;;;;;4791707;29;20073;-82
2024/03/01 07:16:17;;;;;;;4.53;3.42;;;11.00;81.90;;;;;;4797988;29;20038;-82
2024/03/01 07:18:45;;;;;;;3.95;3.10;;;11.00;81.90;;;;;;4821942;29;20025;-96
2024/03/01 07:21:11;;;;;;;4.15;3.45;;;11.00;81.90;;;;;;4796165;29;20093;-89
2024/03/01 07:23:41;;;;;;;4.55;3.30;;;11.00;81.90;;;;;;4798986;29;20785;-96
2024/03/01 07:26:08;;;;;;;3.75;2.97;;;11.00;81.90;;;;;;4807393;29;20069;-82
2024/03/01 07:28:33;;;;;;;4.00;2.85;;;11.00;81.90;;;;;;4804775;29;20026;-88
2024/03/01 07:31:03;;;;;;;3.97;2.95;;;11.00;81.90;;;;;;4801345;29;20034;-88
2024/03/01 07:33:30;;;;;;;4.53;3.28;;;11.00;81.90;;;;;;4807832;29;20027;-82
2024/03/01 07:35:56;;;;;;;4.30;3.00;;;11.00;81.90;;;;;;4808098;29;20050;-89
2024/03/01 07:38:22;;;;;;;4.32;3.17;;;11.00;81.90;;;;;;4792920;29;20031;-82
2024/03/01 07:40:48;;;;;;;4.30;3.30;;;11.00;81.90;;;;;;4806699;29;20498;-88
2024/03/01 07:43:14;;;;;;;4.10;3.22;;;11.00;81.90;;;;;;4790865;29;20058;-79
2024/03/01 07:45:39;;;;;;;4.72;3.30;;;10.90;81.90;;;;;;4811287;24;20067;-79
2024/03/01 07:48:06;;;;;;;4.00;3.00;;;11.00;82.00;;;;;;4803356;29;20038;-89
2024/03/01 07:50:32;;;;;;;4.20;3.00;;;10.90;81.90;;;;;;4816774;29;20121;-82
2024/03/01 07:52:58;;;;;;;4.15;3.20;;;11.00;81.90;;;;;;4801092;29;20118;-82
2024/03/01 07:55:25;;;;;;;4.63;2.97;;;10.90;81.90;;;;;;4794878;29;20113;-82
2024/03/01 07:57:52;;;;;;;4.30;2.95;;;10.90;81.90;;;;;;4798372;29;20282;-79
2024/03/01 08:00:35;;;;;;;3.92;3.17;;;10.90;81.90;;;;;;5190941;24;20061;31
2024/03/01 08:03:16;;;;;;;4.05;3.10;;;10.90;81.90;;;;;;4784016;24;20039;31
2024/03/01 08:06:03;;;;;;;3.95;2.97;;;10.90;81.90;;;;;;4761945;30;20088;-82
2024/03/01 08:08:43;;;;;;;5.43;3.40;;;10.90;81.90;;;;;;4751443;30;20032;-82
2024/03/01 08:11:10;;;;;;;4.60;3.22;;;10.90;81.90;;;;;;4765593;24;20122;-82
2024/03/01 08:13:37;;;;;;;4.85;3.15;;;10.90;82.00;;;;;;4802920;29;20031;-83
2024/03/01 08:16:10;;;;;;;4.68;3.50;;;10.90;82.00;;;;;;4803342;29;20130;-88
2024/03/01 08:18:53;;;;;;;3.95;3.08;;;10.90;82.00;;;;;;4807812;29;20027;-89
2024/03/01 08:21:23;;;;;;;4.65;3.20;;;10.90;82.00;;;;;;4814316;29;20031;-79
2024/03/01 08:23:48;;;;;;;4.70;3.47;;;10.90;82.00;;;;;;4817049;29;20046;-82
2024/03/01 08:26:24;;;;;;;4.88;3.33;;;10.90;82.00;;;;;;4787951;29;20023;-88
2024/03/01 08:28:52;;;;;;;4.43;3.30;;;10.90;82.00;;;;;;4804646;29;20030;-79
2024/03/01 08:31:30;;;;;;;4.80;3.53;;;10.90;82.00;;;;;;4878470;24;20063;-89
2024/03/01 08:34:05;;;;;;;4.70;3.55;;;10.90;82.00;;;;;;4771780;29;20101;-78
2024/03/01 08:36:34;;;;;;;5.68;4.03;;;10.90;82.00;;;;;;4780360;29;20054;-82
2024/03/01 08:39:07;;;;;;;5.03;3.63;;;10.90;82.00;;;;;;4818722;29;20071;-88
2024/03/01 08:41:34;;;;;;;4.90;3.90;;;10.90;82.00;;;;;;4784145;29;20070;-88
2024/03/01 08:43:59;;;;;;;5.60;4.03;;;10.90;82.00;;;;;;4787849;29;20071;-79
2024/03/01 08:46:33;;;;;;;5.68;4.40;;;10.90;82.00;;;;;;4779225;29;20014;-96
2024/03/01 08:49:31;;;;;;;6.88;4.60;;;10.90;82.00;;;;;;4797686;29;20068;-79
2024/03/01 08:51:57;;;;;;;6.18;4.32;;;10.90;82.00;;;;;;4778501;29;20042;-82
2024/03/01 08:54:26;;;;;;;7.20;5.00;;;10.90;81.90;;;;;;4794149;29;20027;-79
2024/03/01 08:57:05;;;;;;;6.13;4.78;;;10.90;81.90;;;;;;4777249;29;20069;-88
2024/03/01 08:59:47;;;;;;;6.60;4.82;;;10.90;81.90;;;;;;4799181;29;20030;-96
2024/03/01 09:02:46;;;;;;;6.72;4.50;;;10.90;81.90;;;;;;4793826;29;20198;-78
2024/03/01 09:05:14;;;;;;;6.70;5.25;;;10.90;81.90;;;;;;4785862;29;20603;-81
2024/03/01 09:07:43;;;;;;;6.35;4.68;;;10.90;81.90;;;;;;4766718;30;20422;-82
2024/03/01 09:10:27;;;;;;;7.30;5.72;;;10.90;81.90;;;;;;4770657;29;20028;-79
2024/03/01 09:12:53;;;;;;;6.95;5.82;;;10.90;82.00;;;;;;4773457;29;20121;-88
2024/03/01 09:15:23;;;;;;;7.82;5.72;;;10.90;81.90;;;;;;4777250;29;20103;-96
2024/03/01 09:17:52;;;;;;;7.70;5.38;;;11.00;82.00;;;;;;4775038;29;20037;-79
2024/03/01 09:20:36;;;;;;;6.53;5.35;;;11.00;81.90;;;;;;4795748;29;20118;-95
2024/03/01 09:23:05;;;;;;;7.68;5.47;;;11.00;81.90;;;;;;4779212;29;20111;-96
2024/03/01 09:25:45;;;;;;;7.40;5.70;;;11.00;81.90;;;;;;4772403;29;20182;-79
2024/03/01 09:28:14;;;;;;;7.07;5.47;;;11.00;82.00;;;;;;4792372;29;20568;-95
2024/03/01 09:30:47;;;;;;;8.38;5.78;;;11.00;82.00;;;;;;4806883;29;20099;-80
2024/03/01 09:33:18;;;;;;;7.07;5.70;;;11.00;81.90;;;;;;4788237;29;20031;-90
2024/03/01 09:35:50;;;;;;;7.60;5.93;;;11.00;82.00;;;;;;4795638;29;20122;-92
2024/03/01 09:38:17;;;;;;;7.57;5.60;;;11.00;81.90;;;;;;4790261;29;20035;-95
2024/03/01 09:40:53;;;;;;;7.60;6.22;;;11.00;81.90;;;;;;4771367;29;20038;-80
2024/03/01 09:43:33;;;;;;;8.18;6.28;;;11.10;81.90;;;;;;4802907;29;20035;-93
2024/03/01 09:46:02;;;;;;;7.90;6.03;;;11.10;81.90;;;;;;4789345;29;20476;-83
2024/03/01 09:48:54;;;;;;;8.00;6.55;;;11.10;81.90;;;;;;4794950;29;20027;-80
2024/03/01 09:51:22;;;;;;;8.85;6.25;;;11.10;81.90;;;;;;4807181;29;20037;-96
2024/03/01 09:54:13;;;;;;;9.35;6.68;;;11.10;81.90;;;;;;4798638;29;20049;-91
2024/03/01 09:57:19;;;;;;;7.45;5.85;;;11.20;82.00;;;;;;4782276;29;20125;-96
2024/03/01 09:59:54;;;;;;;8.27;5.70;;;11.20;82.00;;;;;;4776584;29;20074;-90
2024/03/01 10:02:50;;;;;;;7.07;6.07;;;11.20;82.00;;;;;;4789371;29;20043;-94
2024/03/01 10:05:33;;;;;;;6.90;5.75;;;11.20;82.10;;;;;;4789102;29;20035;-83
2024/03/01 10:08:21;;;;;;;7.80;5.85;;;11.20;82.20;;;;;;4792599;29;20038;-83
2024/03/01 10:11:33;;;;;;;7.50;5.20;;;11.20;82.20;;;;;;4772331;29;20039;-89
2024/03/01 10:14:25;;;;;;;7.78;5.90;;;11.20;82.20;;;;;;4769503;29;20125;-90
2024/03/01 10:17:12;;;;;;;6.53;5.20;;;11.30;82.30;;;;;;4787987;29;20032;-87
2024/03/01 10:20:29;;;;;;;6.95;5.35;;;11.30;82.30;;;;;;4775768;29;20043;-93
2024/03/01 10:23:04;;;;;;;8.30;5.60;;;11.30;82.30;;;;;;4717049;30;20140;-93
2024/03/01 10:25:42;;;;;;;6.88;5.35;;;11.40;82.30;;;;;;4715042;30;20486;-93
2024/03/01 10:28:30;;;;;;;6.97;5.30;;;11.40;82.30;;;;;;4766543;29;20031;-90
2024/03/01 10:31:35;;;;;;;6.28;5.20;;;11.50;82.30;;;;;;4801231;29;20058;-79
2024/03/01 10:34:54;;;;;;;6.32;4.90;;;11.50;82.30;;;;;;4769760;29;20120;-79
2024/03/01 10:37:38;;;;;;;6.68;5.22;;;11.60;82.30;;;;;;4745371;29;20050;-85
2024/03/01 10:40:17;;;;;;;7.18;5.47;;;11.60;82.20;;;;;;4804120;29;20033;-91
2024/03/01 10:42:51;;;;;;;6.82;4.88;;;11.70;82.30;;;;;;4762916;29;20030;-81
2024/03/01 10:45:40;;;;;;;5.93;5.13;;;11.70;82.20;;;;;;4800167;29;20035;-82
2024/03/01 10:48:07;;;;;;;7.30;4.75;;;11.80;82.30;;;;;;4784808;29;20450;-81
2024/03/01 10:50:39;;;;;;;7.40;5.47;;;11.80;82.20;;;;;;4790214;29;20076;-94
2024/03/01 10:53:15;;;;;;;6.85;5.00;;;11.80;82.20;;;;;;4771967;29;20057;-93
2024/03/01 10:55:46;;;;;;;6.28;4.82;;;11.90;82.30;;;;;;4784039;29;20045;-91
2024/03/01 10:58:22;;;;;;;6.43;4.78;;;11.90;82.20;;;;;;4775239;29;20118;-90
2024/03/01 11:01:25;;;;;;;7.15;4.07;;;12.00;82.30;;;;;;4774445;29;20484;-94
2024/03/01 11:04:03;;;;;;;6.50;4.15;;;12.00;82.30;;;;;;4703623;30;20029;-82
2024/03/01 11:06:34;;;;;;;5.97;4.28;;;12.10;82.30;;;;;;4770026;29;20534;-85
2024/03/01 11:09:25;;;;;;;7.78;4.32;;;12.10;82.30;;;;;;4775962;29;20035;-82
2024/03/01 11:12:07;;;;;;;6.57;4.70;;;12.20;82.40;;;;;;4787303;29;20062;-96
2024/03/01 11:14:36;;;;;;;6.80;4.57;;;12.20;82.40;;;;;;4773755;29;20046;-82
2024/03/01 11:17:05;;;;;;;6.75;4.55;;;12.20;82.40;;;;;;4802275;29;20039;-92
2024/03/01 11:19:33;;;;;;;5.90;4.22;;;12.30;82.40;;;;;;4774546;29;20034;-82
2024/03/01 11:22:15;;;;;;;7.10;4.18;;;12.40;82.50;;;;;;4787320;29;20030;-84
2024/03/01 11:25:05;;;;;;;6.75;4.00;;;12.40;82.50;;;;;;4802342;29;20032;-92
2024/03/01 11:27:36;;;;;;;5.45;4.18;;;12.40;82.50;;;;;;4786315;29;20091;-81
2024/03/01 11:30:09;;;;;;;6.45;4.20;;;12.40;82.50;;;;;;4790002;29;20027;-84
2024/03/01 11:32:46;;;;;;;7.57;3.65;;;12.50;82.60;;;;;;4768979;29;20015;-96
2024/03/01 11:35:26;;;;;;;6.07;4.55;;;12.50;82.60;;;;;;4791910;29;20122;-81
2024/03/01 11:38:10;;;;;;;5.40;3.90;;;12.50;82.60;;;;;;4766228;29;20047;-96
2024/03/01 11:40:58;;;;;;;5.83;4.20;;;12.50;82.60;;;;;;4803858;29;20027;-81
2024/03/01 11:43:30;;;;;;;5.32;3.90;;;12.60;82.70;;;;;;4783985;29;20027;-80
2024/03/01 11:46:14;;;;;;;5.05;4.00;;;12.60;82.60;;;;;;4790866;29;20034;-93
2024/03/01 11:49:12;;;;;;;5.72;3.92;;;12.60;82.60;;;;;;4772728;29;20034;-93
2024/03/01 11:51:50;;;;;;;5.28;3.70;;;12.70;82.70;;;;;;4782009;29;20035;-81
2024/03/01 11:54:42;;;;;;;5.07;3.67;;;12.70;82.80;;;;;;4786798;29;20448;-94
2024/03/01 11:57:29;;;;;;;5.55;3.90;;;12.70;82.80;;;;;;4791079;29;20048;-83
2024/03/01 12:00:22;;;;;;;4.63;3.47;;;12.70;82.90;;;;;;4780186;29;20122;-80
2024/03/01 12:03:42;;;;;;;4.40;3.08;;;12.80;83.00;;;;;;4771560;29;20087;-82
2024/03/01 12:06:27;;;;;;;5.30;3.30;;;12.80;83.00;;;;;;4739076;30;20036;-94
2024/03/01 12:09:14;;;;;;;6.43;3.38;;;12.80;83.00;;;;;;4743521;30;20052;-94
2024/03/01 12:11:50;;;;;;;6.20;3.35;;;12.80;83.00;;;;;;4769934;29;20529;-95
2024/03/01 12:14:26;;;;;;;4.00;3.10;;;12.90;83.10;;;;;;4789873;29;20098;-93
2024/03/01 12:17:03;;;;;;;4.72;3.55;;;12.90;83.10;;;;;;4778488;29;20137;-81
2024/03/01 12:19:52;;;;;;;4.63;3.30;;;12.90;83.10;;;;;;4798167;29;20031;-95
2024/03/01 12:22:37;;;;;;;5.35;2.92;;;13.00;83.20;;;;;;4769546;29;20030;-83
2024/03/01 12:25:05;;;;;;;3.20;2.72;;;13.00;83.20;;;;;;4796298;29;20031;-82
2024/03/01 12:27:53;;;;;;;4.80;3.22;;;13.00;83.20;;;;;;4796617;29;20031;-94
2024/03/01 12:30:43;;;;;;;4.40;3.00;;;13.10;83.30;;;;;;4790541;29;20506;-81
2024/03/01 12:33:48;;;;;;;4.38;3.10;;;13.10;83.30;;;;;;4784760;29;20047;-81
2024/03/01 12:36:32;;;;;;;4.43;3.00;;;13.10;83.20;;;;;;4788094;29;20053;-81
2024/03/01 12:39:10;;;;;;;4.18;2.78;;;13.20;83.20;;;;;;4793360;29;20050;-83
2024/03/01 12:41:55;;;;;;;4.25;2.97;;;13.20;83.20;;;;;;4804102;29;20575;-80
2024/03/01 12:44:36;;;;;;;4.22;2.80;;;13.20;83.10;;;;;;4783600;29;20031;-84
2024/03/01 12:47:09;;;;;;;5.38;2.80;;;13.30;83.10;;;;;;4778896;29;20019;-83
2024/03/01 12:49:41;;;;;;;4.10;2.60;;;13.20;83.00;;;;;;4813700;29;20030;-96
2024/03/01 12:52:45;;;;;;;2.83;2.30;;;13.30;83.00;;;;;;4799974;29;20097;-94
2024/03/01 12:55:40;;;;;;;2.70;2.40;;;13.30;82.90;;;;;;4792053;29;20050;-81
2024/03/01 12:58:28;;;;;;;3.10;2.47;;;13.30;82.90;;;;;;4798233;29;20114;-83
2024/03/01 13:01:29;;;;;;;4.20;2.50;;;13.40;83.00;;;;;;4797781;29;20502;-94
2024/03/01 13:04:08;;;;;;;2.97;2.30;;;13.40;83.10;;;;;;4787723;29;20156;-94
2024/03/01 13:06:35;;;;;;;2.20;2.00;;;13.40;83.00;;;;;;4799055;29;20046;-81
2024/03/01 13:09:14;;;;;;;2.85;2.38;;;13.40;83.00;;;;;;4791394;29;20176;-93
2024/03/01 13:11:42;;;;;;;2.63;2.20;;;13.50;83.00;;;;;;4795272;29;20480;-92